Current Weather



TAF Data Links

METAR Data Links

Latest METAR/TAF Data


Available data for KAUS from the past 2 hours
AUSTIN, TX
Metar
KAUS 191653Z VRB03KT 10SM OVC012 07/M01 A3027 RMK AO2 SLP255 T00721006

16:53 UTC

Wind: ° 3kt

Visibility: 10 SM

Sky: OVC 1200 ft

Temp: 7 deg C / 44.6 deg F

Dewpoint: -1 deg C / 30.2 deg F

Pressure: 30.27 inHg

TAF
KAUS 191710Z 1917/2018 VRB03KT P6SM OVC010 FM192200 17006KT P6SM OVC008 FM200300 VRB03KT 2SM BR BKN003 FM200600 19003KT 1/2SM FG OVC001 FM201600 19008KT 6SM BR BKN009


Available data for KEDC from the past 2 hours
AUSTIN EXEC, TX
Metar
KEDC 191735Z AUTO 17003KT 10SM OVC013 08/00 A3026 RMK AO2

17:35 UTC

Wind: 170° 3kt

Visibility: 10 SM

Sky: OVC 1300 ft

Temp: 8 deg C / 46.4 deg F

Dewpoint: 0 deg C / 32 deg F

Pressure: 30.26 inHg



Available data for KRYW from the past 2 hours
LAGO VISTA, TX
Metar
KRYW 191735Z AUTO 10SM OVC010 08/05 A3023 RMK AO2 T00810053
Pireps (2)
BMQ UA /OV BMQ /TM 1615 /FLUNKN /TP MU2 /SK OVC020-TOP035 /RM DURD
BMQ UA /OV BMQ/TM 1615/FLUNKN/TP MU2/SK OVC020-TOP035/RM DURD